sensor_id;sensor_type;location;lat;lon;timestamp;pressure;altitude;pressure_sealevel;temperature;humidity
9077;BME280;4574;51.072;17.174;2023-04-06T00:00:29;100681.09;;;1.98;100.00
9077;BME280;4574;51.072;17.174;2023-04-06T00:03:00;100677.66;;;1.97;100.00
9077;BME280;4574;51.072;17.174;2023-04-06T00:05:28;100675.38;;;1.91;100.00
9077;BME280;4574;51.072;17.174;2023-04-06T00:07:58;100684.03;;;1.92;100.00
9077;BME280;4574;51.072;17.174;2023-04-06T00:10:26;100676.47;;;1.87;100.00
9077;BME280;4574;51.072;17.174;2023-04-06T00:12:55;100683.53;;;1.85;100.00
9077;BME280;4574;51.072;17.174;2023-04-06T00:15:24;100684.69;;;1.80;100.00
9077;BME280;4574;51.072;17.174;2023-04-06T00:17:52;100696.59;;;1.68;100.00
9077;BME280;4574;51.072;17.174;2023-04-06T00:20:23;100691.56;;;1.48;100.00
9077;BME280;4574;51.072;17.174;2023-04-06T00:22:51;100685.75;;;1.43;100.00
9077;BME280;4574;51.072;17.174;2023-04-06T00:25:21;100684.16;;;1.41;100.00
9077;BME280;4574;51.072;17.174;2023-04-06T00:27:49;100685.91;;;1.40;100.00
9077;BME280;4574;51.072;17.174;2023-04-06T00:30:18;100667.34;;;1.29;100.00
9077;BME280;4574;51.072;17.174;2023-04-06T00:32:47;100678.31;;;1.36;100.00
9077;BME280;4574;51.072;17.174;2023-04-06T00:35:15;100681.75;;;1.36;100.00
9077;BME280;4574;51.072;17.174;2023-04-06T00:37:46;100678.22;;;1.37;100.00
9077;BME280;4574;51.072;17.174;2023-04-06T00:40:15;100677.41;;;1.37;100.00
9077;BME280;4574;51.072;17.174;2023-04-06T00:42:43;100684.53;;;1.33;100.00
9077;BME280;4574;51.072;17.174;2023-04-06T00:45:12;100683.75;;;1.31;100.00
9077;BME280;4574;51.072;17.174;2023-04-06T00:47:40;100670.88;;;1.28;100.00
9077;BME280;4574;51.072;17.174;2023-04-06T00:50:09;100676.94;;;1.29;100.00
9077;BME280;4574;51.072;17.174;2023-04-06T00:52:38;100669.34;;;1.25;100.00
9077;BME280;4574;51.072;17.174;2023-04-06T00:55:08;100675.44;;;1.25;100.00
9077;BME280;4574;51.072;17.174;2023-04-06T00:57:37;100675.56;;;1.22;100.00
9077;BME280;4574;51.072;17.174;2023-04-06T01:00:07;100681.78;;;1.20;100.00
9077;BME280;4574;51.072;17.174;2023-04-06T01:02:35;100670.69;;;1.16;100.00
9077;BME280;4574;51.072;17.174;2023-04-06T01:05:05;100662.25;;;1.11;100.00
9077;BME280;4574;51.072;17.174;2023-04-06T01:07:34;100658.09;;;1.07;100.00
9077;BME280;4574;51.072;17.174;2023-04-06T01:10:03;100672.41;;;1.16;100.00
9077;BME280;4574;51.072;17.174;2023-04-06T01:12:33;100667.31;;;1.14;100.00
9077;BME280;4574;51.072;17.174;2023-04-06T01:15:02;100665.78;;;1.10;100.00
9077;BME280;4574;51.072;17.174;2023-04-06T01:17:30;100670.22;;;1.08;100.00
9077;BME280;4574;51.072;17.174;2023-04-06T01:19:59;100668.44;;;1.09;100.00
9077;BME280;4574;51.072;17.174;2023-04-06T01:22:29;100668.59;;;1.06;100.00
9077;BME280;4574;51.072;17.174;2023-04-06T01:24:58;100677.19;;;1.08;100.00
9077;BME280;4574;51.072;17.174;2023-04-06T01:27:26;100668.59;;;1.06;100.00
9077;BME280;4574;51.072;17.174;2023-04-06T01:29:56;100668.69;;;1.04;100.00
9077;BME280;4574;51.072;17.174;2023-04-06T01:32:25;100665.38;;;1.01;100.00
9077;BME280;4574;51.072;17.174;2023-04-06T01:34:54;100663.69;;;1.00;100.00
9077;BME280;4574;51.072;17.174;2023-04-06T01:37:22;100667.38;;;0.96;100.00
9077;BME280;4574;51.072;17.174;2023-04-06T01:39:52;100670.22;;;0.91;100.00
9077;BME280;4574;51.072;17.174;2023-04-06T01:42:21;100665.97;;;0.89;100.00
9077;BME280;4574;51.072;17.174;2023-04-06T01:44:50;100674.00;;;0.84;100.00
9077;BME280;4574;51.072;17.174;2023-04-06T01:47:19;100662.75;;;0.84;100.00
9077;BME280;4574;51.072;17.174;2023-04-06T01:49:47;100666.44;;;0.80;100.00
9077;BME280;4574;51.072;17.174;2023-04-06T01:52:16;100666.72;;;0.74;100.00
9077;BME280;4574;51.072;17.174;2023-04-06T01:54:45;100668.41;;;0.75;100.00
9077;BME280;4574;51.072;17.174;2023-04-06T01:57:15;100660.66;;;0.73;100.00
9077;BME280;4574;51.072;17.174;2023-04-06T01:59:44;100668.72;;;0.69;100.00
9077;BME280;4574;51.072;17.174;2023-04-06T02:02:13;100669.50;;;0.71;100.00
9077;BME280;4574;51.072;17.174;2023-04-06T02:04:42;100664.56;;;0.65;100.00
9077;BME280;4574;51.072;17.174;2023-04-06T02:07:10;100665.50;;;0.64;100.00
9077;BME280;4574;51.072;17.174;2023-04-06T02:09:39;100661.19;;;0.63;100.00
9077;BME280;4574;51.072;17.174;2023-04-06T02:12:08;100665.53;;;0.62;100.00
9077;BME280;4574;51.072;17.174;2023-04-06T02:14:38;100665.69;;;0.59;100.00
9077;BME280;4574;51.072;17.174;2023-04-06T02:17:06;100647.09;;;0.50;100.00
9077;BME280;4574;51.072;17.174;2023-04-06T02:19:35;100659.81;;;0.56;100.00
9077;BME280;4574;51.072;17.174;2023-04-06T02:22:04;100671.97;;;0.55;100.00
9077;BME280;4574;51.072;17.174;2023-04-06T02:24:32;100660.09;;;0.50;100.00
9077;BME280;4574;51.072;17.174;2023-04-06T02:27:01;100667.91;;;0.50;100.00
9077;BME280;4574;51.072;17.174;2023-04-06T02:29:30;100666.38;;;0.46;100.00
9077;BME280;4574;51.072;17.174;2023-04-06T02:32:00;100669.13;;;0.43;100.00
9077;BME280;4574;51.072;17.174;2023-04-06T02:34:29;100663.97;;;0.41;100.00
9077;BME280;4574;51.072;17.174;2023-04-06T02:36:58;100675.41;;;0.39;100.00
9077;BME280;4574;51.072;17.174;2023-04-06T02:39:27;100662.53;;;0.36;100.00
9077;BME280;4574;51.072;17.174;2023-04-06T02:41:56;100659.34;;;0.29;100.00
9077;BME280;4574;51.072;17.174;2023-04-06T02:44:25;100672.16;;;0.34;100.00
9077;BME280;4574;51.072;17.174;2023-04-06T02:46:54;100673.84;;;0.35;100.00
9077;BME280;4574;51.072;17.174;2023-04-06T02:49:24;100680.13;;;0.31;100.00
9077;BME280;4574;51.072;17.174;2023-04-06T02:51:52;100679.19;;;0.32;100.00
9077;BME280;4574;51.072;17.174;2023-04-06T02:54:21;100674.13;;;0.29;100.00
9077;BME280;4574;51.072;17.174;2023-04-06T02:56:49;100684.56;;;0.29;100.00
9077;BME280;4574;51.072;17.174;2023-04-06T02:59:18;100678.72;;;0.24;100.00
9077;BME280;4574;51.072;17.174;2023-04-06T03:01:46;100681.31;;;0.24;100.00
9077;BME280;4574;51.072;17.174;2023-04-06T03:04:15;100683.91;;;0.24;100.00
9077;BME280;4574;51.072;17.174;2023-04-06T03:06:45;100687.50;;;0.21;100.00
9077;BME280;4574;51.072;17.174;2023-04-06T03:09:14;100675.47;;;0.19;100.00
9077;BME280;4574;51.072;17.174;2023-04-06T03:11:43;100687.72;;;0.17;100.00
9077;BME280;4574;51.072;17.174;2023-04-06T03:14:12;63291.66;;;-139.42;100.00
9077;BME280;4574;51.072;17.174;2023-04-06T03:16:41;63291.66;;;-139.42;100.00
9077;BME280;4574;51.072;17.174;2023-04-06T03:19:10;63291.66;;;-139.42;100.00
9077;BME280;4574;51.072;17.174;2023-04-06T03:21:38;63291.66;;;-139.42;100.00
9077;BME280;4574;51.072;17.174;2023-04-06T03:24:08;63291.66;;;-139.42;100.00
9077;BME280;4574;51.072;17.174;2023-04-06T03:26:37;63291.66;;;-139.42;100.00
9077;BME280;4574;51.072;17.174;2023-04-06T03:29:05;63291.66;;;-139.42;100.00
9077;BME280;4574;51.072;17.174;2023-04-06T03:31:34;63291.66;;;-139.42;100.00
9077;BME280;4574;51.072;17.174;2023-04-06T03:34:03;63291.66;;;-139.42;100.00
9077;BME280;4574;51.072;17.174;2023-04-06T03:36:33;63291.66;;;-139.42;100.00
9077;BME280;4574;51.072;17.174;2023-04-06T03:39:02;63291.66;;;-139.42;100.00
9077;BME280;4574;51.072;17.174;2023-04-06T03:41:32;63291.66;;;-139.42;100.00
9077;BME280;4574;51.072;17.174;2023-04-06T03:44:00;63291.66;;;-139.42;100.00
9077;BME280;4574;51.072;17.174;2023-04-06T03:46:29;63291.66;;;-139.42;100.00
9077;BME280;4574;51.072;17.174;2023-04-06T03:48:57;63291.66;;;-139.42;100.00
9077;BME280;4574;51.072;17.174;2023-04-06T03:51:27;63291.66;;;-139.42;100.00
9077;BME280;4574;51.072;17.174;2023-04-06T03:53:56;63291.66;;;-139.42;100.00
9077;BME280;4574;51.072;17.174;2023-04-06T03:56:24;63291.66;;;-139.42;100.00
9077;BME280;4574;51.072;17.174;2023-04-06T03:58:55;63291.66;;;-139.42;100.00
9077;BME280;4574;51.072;17.174;2023-04-06T04:01:23;63291.66;;;-139.42;100.00
9077;BME280;4574;51.072;17.174;2023-04-06T04:03:52;63291.66;;;-139.42;100.00
9077;BME280;4574;51.072;17.174;2023-04-06T04:06:20;63291.66;;;-139.42;100.00
9077;BME280;4574;51.072;17.174;2023-04-06T04:08:49;63291.66;;;-139.42;100.00
9077;BME280;4574;51.072;17.174;2023-04-06T04:11:17;63291.66;;;-139.42;100.00
9077;BME280;4574;51.072;17.174;2023-04-06T04:13:47;63291.66;;;-139.42;100.00
9077;BME280;4574;51.072;17.174;2023-04-06T04:16:17;63291.66;;;-139.42;100.00
9077;BME280;4574;51.072;17.174;2023-04-06T04:18:45;63291.66;;;-139.42;100.00
9077;BME280;4574;51.072;17.174;2023-04-06T04:21:15;63291.66;;;-139.42;100.00
9077;BME280;4574;51.072;17.174;2023-04-06T04:23:44;63291.66;;;-139.42;100.00
9077;BME280;4574;51.072;17.174;2023-04-06T04:26:12;63291.66;;;-139.42;100.00
9077;BME280;4574;51.072;17.174;2023-04-06T04:28:41;63291.66;;;-139.42;100.00
9077;BME280;4574;51.072;17.174;2023-04-06T04:31:09;63291.66;;;-139.42;100.00
9077;BME280;4574;51.072;17.174;2023-04-06T04:33:39;63291.66;;;-139.42;100.00
9077;BME280;4574;51.072;17.174;2023-04-06T04:36:09;63291.66;;;-139.42;100.00
9077;BME280;4574;51.072;17.174;2023-04-06T04:38:38;63291.66;;;-139.42;100.00
9077;BME280;4574;51.072;17.174;2023-04-06T04:41:07;63291.66;;;-139.42;100.00
9077;BME280;4574;51.072;17.174;2023-04-06T04:43:36;63291.66;;;-139.42;100.00
9077;BME280;4574;51.072;17.174;2023-04-06T04:46:05;63291.66;;;-139.42;100.00
9077;BME280;4574;51.072;17.174;2023-04-06T04:48:33;63291.66;;;-139.42;100.00
9077;BME280;4574;51.072;17.174;2023-04-06T04:51:04;63291.66;;;-139.42;100.00
9077;BME280;4574;51.072;17.174;2023-04-06T04:53:33;63291.66;;;-139.42;100.00
9077;BME280;4574;51.072;17.174;2023-04-06T04:56:02;63291.66;;;-139.42;100.00
9077;BME280;4574;51.072;17.174;2023-04-06T04:58:30;63291.66;;;-139.42;100.00
9077;BME280;4574;51.072;17.174;2023-04-06T05:00:58;63291.66;;;-139.42;100.00
9077;BME280;4574;51.072;17.174;2023-04-06T05:03:27;63291.66;;;-139.42;100.00
9077;BME280;4574;51.072;17.174;2023-04-06T05:05:56;63291.66;;;-139.42;100.00
9077;BME280;4574;51.072;17.174;2023-04-06T05:08:26;63291.66;;;-139.42;100.00
9077;BME280;4574;51.072;17.174;2023-04-06T05:10:55;63291.66;;;-139.42;100.00
9077;BME280;4574;51.072;17.174;2023-04-06T05:13:23;63291.66;;;-139.42;100.00
9077;BME280;4574;51.072;17.174;2023-04-06T05:15:52;63291.66;;;-139.42;100.00
9077;BME280;4574;51.072;17.174;2023-04-06T05:18:21;63291.66;;;-139.42;100.00
9077;BME280;4574;51.072;17.174;2023-04-06T05:20:50;63291.66;;;-139.42;100.00
9077;BME280;4574;51.072;17.174;2023-04-06T05:23:19;63291.66;;;-139.42;100.00
9077;BME280;4574;51.072;17.174;2023-04-06T05:25:49;63291.66;;;-139.42;100.00
9077;BME280;4574;51.072;17.174;2023-04-06T05:28:18;63291.66;;;-139.42;100.00
9077;BME280;4574;51.072;17.174;2023-04-06T05:30:46;63291.66;;;-139.42;100.00
9077;BME280;4574;51.072;17.174;2023-04-06T05:33:15;63291.66;;;-139.42;100.00
9077;BME280;4574;51.072;17.174;2023-04-06T05:35:44;63291.66;;;-139.42;100.00
9077;BME280;4574;51.072;17.174;2023-04-06T05:38:12;63291.66;;;-139.42;100.00
9077;BME280;4574;51.072;17.174;2023-04-06T05:40:41;63291.66;;;-139.42;100.00
9077;BME280;4574;51.072;17.174;2023-04-06T05:43:11;63291.66;;;-139.42;100.00
9077;BME280;4574;51.072;17.174;2023-04-06T05:45:40;63291.66;;;-139.42;100.00
9077;BME280;4574;51.072;17.174;2023-04-06T05:48:08;63291.66;;;-139.42;100.00
9077;BME280;4574;51.072;17.174;2023-04-06T05:50:37;63291.66;;;-139.42;100.00
9077;BME280;4574;51.072;17.174;2023-04-06T05:53:05;63291.66;;;-139.42;100.00
9077;BME280;4574;51.072;17.174;2023-04-06T05:55:34;63291.66;;;-139.42;100.00
9077;BME280;4574;51.072;17.174;2023-04-06T05:58:02;63291.66;;;-139.42;100.00
9077;BME280;4574;51.072;17.174;2023-04-06T06:00:32;63291.66;;;-139.42;100.00
9077;BME280;4574;51.072;17.174;2023-04-06T06:03:01;63291.66;;;-139.42;100.00
9077;BME280;4574;51.072;17.174;2023-04-06T06:05:31;63291.66;;;-139.42;100.00
9077;BME280;4574;51.072;17.174;2023-04-06T06:08:00;63291.66;;;-139.42;100.00
9077;BME280;4574;51.072;17.174;2023-04-06T06:10:29;63291.66;;;-139.42;100.00
9077;BME280;4574;51.072;17.174;2023-04-06T06:12:58;63291.66;;;-139.42;100.00
9077;BME280;4574;51.072;17.174;2023-04-06T06:15:26;63291.66;;;-139.42;100.00
9077;BME280;4574;51.072;17.174;2023-04-06T06:17:56;63291.66;;;-139.42;100.00
9077;BME280;4574;51.072;17.174;2023-04-06T06:20:25;63291.66;;;-139.42;100.00
9077;BME280;4574;51.072;17.174;2023-04-06T06:22:54;63291.66;;;-139.42;100.00
9077;BME280;4574;51.072;17.174;2023-04-06T06:25:22;63291.66;;;-139.42;100.00
9077;BME280;4574;51.072;17.174;2023-04-06T06:27:51;63291.66;;;-139.42;100.00
9077;BME280;4574;51.072;17.174;2023-04-06T06:30:20;63291.66;;;-139.42;100.00
9077;BME280;4574;51.072;17.174;2023-04-06T06:32:49;63291.66;;;-139.42;100.00
9077;BME280;4574;51.072;17.174;2023-04-06T06:35:20;63291.66;;;-139.42;100.00
9077;BME280;4574;51.072;17.174;2023-04-06T06:37:48;63291.66;;;-139.42;100.00
9077;BME280;4574;51.072;17.174;2023-04-06T06:40:17;63291.66;;;-139.42;100.00
9077;BME280;4574;51.072;17.174;2023-04-06T06:42:47;63291.66;;;-139.42;100.00
9077;BME280;4574;51.072;17.174;2023-04-06T06:45:18;63291.66;;;-139.42;100.00
9077;BME280;4574;51.072;17.174;2023-04-06T06:47:48;63291.66;;;-139.42;100.00
9077;BME280;4574;51.072;17.174;2023-04-06T06:50:22;63291.66;;;-139.42;100.00
9077;BME280;4574;51.072;17.174;2023-04-06T06:52:50;63291.66;;;-139.42;100.00
9077;BME280;4574;51.072;17.174;2023-04-06T06:55:19;63291.66;;;-139.42;100.00
9077;BME280;4574;51.072;17.174;2023-04-06T06:57:47;63291.66;;;-139.42;100.00
9077;BME280;4574;51.072;17.174;2023-04-06T07:00:16;63291.66;;;-139.42;100.00
9077;BME280;4574;51.072;17.174;2023-04-06T07:02:47;63291.66;;;-139.42;100.00
9077;BME280;4574;51.072;17.174;2023-04-06T07:05:16;63291.66;;;-139.42;100.00
9077;BME280;4574;51.072;17.174;2023-04-06T07:07:56;63291.66;;;-139.42;100.00
9077;BME280;4574;51.072;17.174;2023-04-06T07:10:24;63291.66;;;-139.42;100.00
9077;BME280;4574;51.072;17.174;2023-04-06T07:12:53;63291.66;;;-139.42;100.00
9077;BME280;4574;51.072;17.174;2023-04-06T07:15:22;63291.66;;;-139.42;100.00
9077;BME280;4574;51.072;17.174;2023-04-06T07:17:56;63291.66;;;-139.42;100.00
9077;BME280;4574;51.072;17.174;2023-04-06T07:20:28;63291.66;;;-139.42;100.00
9077;BME280;4574;51.072;17.174;2023-04-06T07:22:58;63291.66;;;-139.42;100.00
9077;BME280;4574;51.072;17.174;2023-04-06T07:25:26;63291.66;;;-139.42;100.00
9077;BME280;4574;51.072;17.174;2023-04-06T07:27:56;63291.66;;;-139.42;100.00
9077;BME280;4574;51.072;17.174;2023-04-06T07:30:25;63291.66;;;-139.42;100.00
9077;BME280;4574;51.072;17.174;2023-04-06T07:32:58;63291.66;;;-139.42;100.00
9077;BME280;4574;51.072;17.174;2023-04-06T07:35:27;63291.66;;;-139.42;100.00
9077;BME280;4574;51.072;17.174;2023-04-06T07:37:58;63291.66;;;-139.42;100.00
9077;BME280;4574;51.072;17.174;2023-04-06T07:40:27;63291.66;;;-139.42;100.00
9077;BME280;4574;51.072;17.174;2023-04-06T07:42:56;63291.66;;;-139.42;100.00
9077;BME280;4574;51.072;17.174;2023-04-06T07:45:25;63291.66;;;-139.42;100.00
9077;BME280;4574;51.072;17.174;2023-04-06T07:47:54;63291.66;;;-139.42;100.00
9077;BME280;4574;51.072;17.174;2023-04-06T07:50:23;63291.66;;;-139.42;100.00
9077;BME280;4574;51.072;17.174;2023-04-06T07:52:51;63291.66;;;-139.42;100.00
9077;BME280;4574;51.072;17.174;2023-04-06T07:55:22;63291.66;;;-139.42;100.00
9077;BME280;4574;51.072;17.174;2023-04-06T07:57:50;63291.66;;;-139.42;100.00
9077;BME280;4574;51.072;17.174;2023-04-06T08:00:20;63291.66;;;-139.42;100.00
9077;BME280;4574;51.072;17.174;2023-04-06T08:02:49;63291.66;;;-139.42;100.00
9077;BME280;4574;51.072;17.174;2023-04-06T08:05:18;63291.66;;;-139.42;100.00
9077;BME280;4574;51.072;17.174;2023-04-06T08:07:47;63291.66;;;-139.42;100.00
9077;BME280;4574;51.072;17.174;2023-04-06T08:10:16;63291.66;;;-139.42;100.00
9077;BME280;4574;51.072;17.174;2023-04-06T08:12:46;63291.66;;;-139.42;100.00
9077;BME280;4574;51.072;17.174;2023-04-06T08:15:15;63291.66;;;-139.42;100.00
9077;BME280;4574;51.072;17.174;2023-04-06T08:17:45;63291.66;;;-139.42;100.00
9077;BME280;4574;51.072;17.174;2023-04-06T08:20:14;63291.66;;;-139.42;100.00
9077;BME280;4574;51.072;17.174;2023-04-06T08:22:42;63291.66;;;-139.42;100.00
9077;BME280;4574;51.072;17.174;2023-04-06T08:25:11;63291.66;;;-139.42;100.00
9077;BME280;4574;51.072;17.174;2023-04-06T08:27:40;63291.66;;;-139.42;100.00
9077;BME280;4574;51.072;17.174;2023-04-06T08:30:11;63291.66;;;-139.42;100.00
9077;BME280;4574;51.072;17.174;2023-04-06T08:32:44;63291.66;;;-139.42;100.00
9077;BME280;4574;51.072;17.174;2023-04-06T08:35:13;63291.66;;;-139.42;100.00
9077;BME280;4574;51.072;17.174;2023-04-06T08:37:41;63291.66;;;-139.42;100.00
9077;BME280;4574;51.072;17.174;2023-04-06T08:40:11;63291.66;;;-139.42;100.00
9077;BME280;4574;51.072;17.174;2023-04-06T08:42:41;63291.66;;;-139.42;100.00
9077;BME280;4574;51.072;17.174;2023-04-06T08:45:14;63291.66;;;-139.42;100.00
9077;BME280;4574;51.072;17.174;2023-04-06T08:47:45;63291.66;;;-139.42;100.00
9077;BME280;4574;51.072;17.174;2023-04-06T08:50:16;63291.66;;;-139.42;100.00
9077;BME280;4574;51.072;17.174;2023-04-06T08:52:47;63291.66;;;-139.42;100.00
9077;BME280;4574;51.072;17.174;2023-04-06T08:55:16;63291.66;;;-139.42;100.00
9077;BME280;4574;51.072;17.174;2023-04-06T08:57:45;63291.66;;;-139.42;100.00
9077;BME280;4574;51.072;17.174;2023-04-06T09:00:17;63291.66;;;-139.42;100.00
9077;BME280;4574;51.072;17.174;2023-04-06T09:02:47;63291.66;;;-139.42;100.00
9077;BME280;4574;51.072;17.174;2023-04-06T09:05:17;63291.66;;;-139.42;100.00
9077;BME280;4574;51.072;17.174;2023-04-06T09:07:46;63291.66;;;-139.42;100.00
9077;BME280;4574;51.072;17.174;2023-04-06T09:10:16;63291.66;;;-139.42;100.00
9077;BME280;4574;51.072;17.174;2023-04-06T09:12:45;63291.66;;;-139.42;100.00
9077;BME280;4574;51.072;17.174;2023-04-06T09:15:22;63291.66;;;-139.42;100.00
9077;BME280;4574;51.072;17.174;2023-04-06T09:17:50;63291.66;;;-139.42;100.00
9077;BME280;4574;51.072;17.174;2023-04-06T09:20:23;63291.66;;;-139.42;100.00
9077;BME280;4574;51.072;17.174;2023-04-06T09:22:53;63291.66;;;-139.42;100.00
9077;BME280;4574;51.072;17.174;2023-04-06T09:25:24;63291.66;;;-139.42;100.00
9077;BME280;4574;51.072;17.174;2023-04-06T09:28:01;63291.66;;;-139.42;100.00
9077;BME280;4574;51.072;17.174;2023-04-06T09:30:31;63291.66;;;-139.42;100.00
9077;BME280;4574;51.072;17.174;2023-04-06T09:33:01;63291.66;;;-139.42;100.00
9077;BME280;4574;51.072;17.174;2023-04-06T09:35:30;63291.66;;;-139.42;100.00
9077;BME280;4574;51.072;17.174;2023-04-06T09:38:10;63291.66;;;-139.42;100.00
9077;BME280;4574;51.072;17.174;2023-04-06T09:40:48;63291.66;;;-139.42;100.00
9077;BME280;4574;51.072;17.174;2023-04-06T09:43:27;63291.66;;;-139.42;100.00
9077;BME280;4574;51.072;17.174;2023-04-06T09:46:00;63291.66;;;-139.42;100.00
9077;BME280;4574;51.072;17.174;2023-04-06T09:48:34;63291.66;;;-139.42;100.00
9077;BME280;4574;51.072;17.174;2023-04-06T09:51:06;63291.66;;;-139.42;100.00
9077;BME280;4574;51.072;17.174;2023-04-06T09:53:39;63291.66;;;-139.42;100.00
9077;BME280;4574;51.072;17.174;2023-04-06T09:56:12;63291.66;;;-139.42;100.00
9077;BME280;4574;51.072;17.174;2023-04-06T09:58:42;63291.66;;;-139.42;100.00
9077;BME280;4574;51.072;17.174;2023-04-06T10:01:15;63291.66;;;-139.42;100.00
9077;BME280;4574;51.072;17.174;2023-04-06T10:03:56;63291.66;;;-139.42;100.00
9077;BME280;4574;51.072;17.174;2023-04-06T10:06:32;63291.66;;;-139.42;100.00
9077;BME280;4574;51.072;17.174;2023-04-06T10:09:04;63291.66;;;-139.42;100.00
9077;BME280;4574;51.072;17.174;2023-04-06T10:11:35;63291.66;;;-139.42;100.00
9077;BME280;4574;51.072;17.174;2023-04-06T10:14:08;63291.66;;;-139.42;100.00
9077;BME280;4574;51.072;17.174;2023-04-06T10:16:40;63291.66;;;-139.42;100.00
9077;BME280;4574;51.072;17.174;2023-04-06T10:19:13;63291.66;;;-139.42;100.00
9077;BME280;4574;51.072;17.174;2023-04-06T10:21:44;63291.66;;;-139.42;100.00
9077;BME280;4574;51.072;17.174;2023-04-06T10:24:14;63291.66;;;-139.42;100.00
9077;BME280;4574;51.072;17.174;2023-04-06T10:26:56;63291.66;;;-139.42;100.00
9077;BME280;4574;51.072;17.174;2023-04-06T10:29:26;63291.66;;;-139.42;100.00
9077;BME280;4574;51.072;17.174;2023-04-06T10:31:58;63291.66;;;-139.42;100.00
9077;BME280;4574;51.072;17.174;2023-04-06T10:34:34;63291.66;;;-139.42;100.00
9077;BME280;4574;51.072;17.174;2023-04-06T10:37:11;63291.66;;;-139.42;100.00
9077;BME280;4574;51.072;17.174;2023-04-06T10:39:47;63291.66;;;-139.42;100.00
9077;BME280;4574;51.072;17.174;2023-04-06T10:42:16;63291.66;;;-139.42;100.00
9077;BME280;4574;51.072;17.174;2023-04-06T10:44:44;63291.66;;;-139.42;100.00
9077;BME280;4574;51.072;17.174;2023-04-06T10:47:18;63291.66;;;-139.42;100.00
9077;BME280;4574;51.072;17.174;2023-04-06T10:49:47;63291.66;;;-139.42;100.00
9077;BME280;4574;51.072;17.174;2023-04-06T10:52:15;63291.66;;;-139.42;100.00
9077;BME280;4574;51.072;17.174;2023-04-06T10:54:44;63291.66;;;-139.42;100.00
9077;BME280;4574;51.072;17.174;2023-04-06T10:57:16;63291.66;;;-139.42;100.00
9077;BME280;4574;51.072;17.174;2023-04-06T10:59:44;63291.66;;;-139.42;100.00
9077;BME280;4574;51.072;17.174;2023-04-06T11:02:21;63291.66;;;-139.42;100.00
9077;BME280;4574;51.072;17.174;2023-04-06T11:04:56;63291.66;;;-139.42;100.00
9077;BME280;4574;51.072;17.174;2023-04-06T11:07:25;63291.66;;;-139.42;100.00
9077;BME280;4574;51.072;17.174;2023-04-06T11:09:56;63291.66;;;-139.42;100.00
9077;BME280;4574;51.072;17.174;2023-04-06T11:12:42;63291.66;;;-139.42;100.00
9077;BME280;4574;51.072;17.174;2023-04-06T11:15:11;63291.66;;;-139.42;100.00
9077;BME280;4574;51.072;17.174;2023-04-06T11:17:41;63291.66;;;-139.42;100.00
9077;BME280;4574;51.072;17.174;2023-04-06T11:20:11;63291.66;;;-139.42;100.00
9077;BME280;4574;51.072;17.174;2023-04-06T11:22:48;63291.66;;;-139.42;100.00
9077;BME280;4574;51.072;17.174;2023-04-06T11:25:17;63291.66;;;-139.42;100.00
9077;BME280;4574;51.072;17.174;2023-04-06T11:27:47;63291.66;;;-139.42;100.00
9077;BME280;4574;51.072;17.174;2023-04-06T11:30:16;63291.66;;;-139.42;100.00
9077;BME280;4574;51.072;17.174;2023-04-06T11:32:46;63291.66;;;-139.42;100.00
9077;BME280;4574;51.072;17.174;2023-04-06T11:35:20;63291.66;;;-139.42;100.00
9077;BME280;4574;51.072;17.174;2023-04-06T11:37:49;63291.66;;;-139.42;100.00
9077;BME280;4574;51.072;17.174;2023-04-06T11:40:21;63291.66;;;-139.42;100.00
9077;BME280;4574;51.072;17.174;2023-04-06T11:42:52;63291.66;;;-139.42;100.00
9077;BME280;4574;51.072;17.174;2023-04-06T11:45:21;63291.66;;;-139.42;100.00
9077;BME280;4574;51.072;17.174;2023-04-06T11:47:59;63291.66;;;-139.42;100.00
9077;BME280;4574;51.072;17.174;2023-04-06T11:50:32;63291.66;;;-139.42;100.00
9077;BME280;4574;51.072;17.174;2023-04-06T11:53:02;63291.66;;;-139.42;100.00
9077;BME280;4574;51.072;17.174;2023-04-06T11:55:36;63291.66;;;-139.42;100.00
9077;BME280;4574;51.072;17.174;2023-04-06T11:58:05;63291.66;;;-139.42;100.00
9077;BME280;4574;51.072;17.174;2023-04-06T12:00:34;63291.66;;;-139.42;100.00
9077;BME280;4574;51.072;17.174;2023-04-06T12:03:05;63291.66;;;-139.42;100.00
9077;BME280;4574;51.072;17.174;2023-04-06T12:05:34;63291.66;;;-139.42;100.00
9077;BME280;4574;51.072;17.174;2023-04-06T12:08:05;63291.66;;;-139.42;100.00
9077;BME280;4574;51.072;17.174;2023-04-06T12:10:36;63291.66;;;-139.42;100.00
9077;BME280;4574;51.072;17.174;2023-04-06T12:13:05;63291.66;;;-139.42;100.00
9077;BME280;4574;51.072;17.174;2023-04-06T12:15:33;63291.66;;;-139.42;100.00
9077;BME280;4574;51.072;17.174;2023-04-06T12:18:02;63291.66;;;-139.42;100.00
9077;BME280;4574;51.072;17.174;2023-04-06T12:20:32;63291.66;;;-139.42;100.00
9077;BME280;4574;51.072;17.174;2023-04-06T12:23:01;63291.66;;;-139.42;100.00
9077;BME280;4574;51.072;17.174;2023-04-06T12:25:30;63291.66;;;-139.42;100.00
9077;BME280;4574;51.072;17.174;2023-04-06T12:27:58;63291.66;;;-139.42;100.00
9077;BME280;4574;51.072;17.174;2023-04-06T12:30:27;63291.66;;;-139.42;100.00
9077;BME280;4574;51.072;17.174;2023-04-06T12:32:56;63291.66;;;-139.42;100.00
9077;BME280;4574;51.072;17.174;2023-04-06T12:35:25;63291.66;;;-139.42;100.00
9077;BME280;4574;51.072;17.174;2023-04-06T12:37:57;63291.66;;;-139.42;100.00
9077;BME280;4574;51.072;17.174;2023-04-06T12:40:25;63291.66;;;-139.42;100.00
9077;BME280;4574;51.072;17.174;2023-04-06T12:42:54;63291.66;;;-139.42;100.00
9077;BME280;4574;51.072;17.174;2023-04-06T12:45:22;63291.66;;;-139.42;100.00
9077;BME280;4574;51.072;17.174;2023-04-06T12:47:51;63291.66;;;-139.42;100.00
9077;BME280;4574;51.072;17.174;2023-04-06T12:50:20;63291.66;;;-139.42;100.00
9077;BME280;4574;51.072;17.174;2023-04-06T12:52:48;63291.66;;;-139.42;100.00
9077;BME280;4574;51.072;17.174;2023-04-06T12:55:19;63291.66;;;-139.42;100.00
9077;BME280;4574;51.072;17.174;2023-04-06T12:57:48;63291.66;;;-139.42;100.00